createdAt,value
2019-02-10T13:47:20.391Z,951.77
2019-02-10T14:32:37.933Z,943.35
2019-02-10T14:33:38.845Z,974.56
2019-02-10T14:34:30.995Z,974.83
2019-02-10T14:35:28.123Z,974.86
2019-02-10T14:36:24.146Z,974.78
2019-02-10T14:37:21.252Z,974.91
2019-02-10T14:38:18.742Z,974.86
2019-02-10T14:39:15.373Z,974.85
2019-02-10T14:40:11.785Z,943.32
2019-02-10T14:41:08.814Z,974.73
2019-02-10T14:42:05.841Z,974.84
2019-02-10T14:43:02.860Z,974.85
2019-02-10T14:43:59.942Z,974.90
2019-02-10T14:44:56.929Z,974.85
2019-02-10T14:45:53.941Z,974.94
2019-02-10T14:46:50.967Z,974.97
2019-02-10T14:47:47.999Z,975.04
2019-02-10T14:48:46.286Z,974.99
2019-02-10T14:49:42.069Z,975.11
2019-02-10T14:50:39.081Z,975.06
2019-02-10T14:51:36.111Z,975.17
2019-02-10T14:52:33.233Z,975.12
2019-02-10T14:53:30.170Z,975.10
2019-02-10T14:54:27.681Z,975.19
2019-02-10T14:55:24.207Z,975.15
2019-02-10T14:56:21.246Z,975.15
2019-02-10T14:57:19.269Z,975.14
2019-02-10T14:58:15.300Z,975.10
2019-02-10T14:59:12.329Z,975.14
2019-02-10T15:00:09.360Z,975.15
2019-02-10T15:01:06.384Z,975.12
2019-02-10T15:02:03.400Z,975.16
2019-02-10T15:03:00.427Z,975.18
2019-02-10T15:03:57.454Z,975.17
2019-02-10T15:04:54.492Z,975.20
2019-02-10T15:05:51.507Z,975.23
2019-02-10T15:06:49.540Z,975.17
2019-02-10T15:07:45.561Z,975.26
2019-02-10T15:08:42.609Z,975.17
2019-02-10T15:09:39.614Z,975.15
2019-02-10T15:10:41.907Z,975.03
2019-02-10T15:11:33.671Z,975.09
2019-02-10T15:12:31.148Z,975.11
2019-02-10T15:13:27.721Z,975.04
2019-02-10T15:14:24.755Z,975.14
2019-02-10T15:15:21.782Z,975.10
2019-02-10T15:16:19.818Z,975.07
2019-02-10T15:17:15.835Z,975.12
2019-02-10T15:18:12.868Z,975.09
2019-02-10T15:19:09.885Z,975.14
2019-02-10T15:20:06.917Z,975.19
2019-02-10T15:21:03.943Z,975.19
2019-02-10T15:22:00.968Z,975.15
2019-02-10T15:22:57.997Z,975.11
2019-02-10T15:23:55.034Z,975.14
2019-02-10T15:24:52.062Z,975.19
2019-02-10T15:25:49.082Z,975.27
2019-02-10T15:26:46.104Z,975.29
2019-02-10T15:27:43.141Z,975.24
2019-02-10T15:28:40.164Z,975.26
2019-02-10T15:29:37.188Z,975.31
2019-02-10T15:30:34.219Z,975.22
2019-02-10T15:31:31.240Z,975.21
2019-02-10T15:32:29.269Z,975.24
2019-02-10T15:33:25.292Z,975.22
2019-02-10T15:34:22.330Z,975.28
2019-02-10T15:35:20.354Z,975.32
2019-02-10T15:36:16.378Z,975.35
2019-02-10T15:37:13.401Z,975.32
2019-02-10T15:38:10.437Z,975.30
2019-02-10T15:39:07.458Z,975.34
2019-02-10T15:40:04.486Z,975.27
2019-02-10T15:41:01.514Z,975.36
2019-02-10T15:41:58.540Z,975.33
2019-02-10T15:42:55.567Z,975.35
2019-02-10T15:43:53.596Z,975.38
2019-02-10T15:44:49.632Z,975.37
2019-02-10T15:45:46.659Z,975.33
2019-02-10T15:46:43.672Z,975.37
2019-02-10T15:47:40.696Z,975.30
2019-02-10T15:48:37.722Z,975.30
2019-02-10T15:49:34.751Z,975.42
2019-02-10T15:50:31.784Z,975.37
2019-02-10T15:51:36.929Z,975.32
2019-02-10T15:52:25.836Z,975.42
2019-02-10T15:53:23.869Z,975.49
2019-02-10T15:54:19.893Z,975.44
2019-02-10T15:55:16.919Z,975.48
2019-02-10T15:56:13.972Z,975.48
2019-02-10T15:57:10.968Z,975.47
2019-02-10T15:58:07.995Z,975.59
2019-02-10T15:59:05.523Z,975.65
2019-02-10T16:00:02.044Z,975.55
2019-02-10T16:00:59.105Z,975.64
2019-02-10T16:01:56.101Z,975.65
2019-02-10T16:02:53.130Z,975.72
2019-02-10T16:03:50.157Z,975.57
2019-02-10T16:04:47.184Z,975.49
2019-02-10T16:05:44.229Z,975.50
2019-02-10T16:06:41.230Z,975.46
2019-02-10T16:07:38.266Z,975.42
2019-02-10T16:08:35.291Z,975.42
2019-02-10T16:09:32.313Z,975.56
2019-02-10T16:10:29.343Z,975.53
2019-02-10T16:11:26.370Z,975.49
2019-02-10T16:12:23.405Z,975.59
2019-02-10T16:13:20.425Z,975.55
2019-02-10T16:14:17.482Z,975.55
2019-02-10T16:15:14.480Z,975.61
2019-02-10T16:16:11.512Z,975.64
2019-02-10T16:17:08.539Z,975.57
2019-02-10T16:18:05.558Z,975.57
2019-02-10T16:19:02.597Z,975.48
2019-02-10T16:19:59.913Z,975.54
2019-02-10T16:20:56.675Z,975.57
2019-02-10T16:21:53.664Z,975.66
2019-02-10T16:22:50.699Z,975.68
2019-02-10T16:23:47.730Z,975.78
2019-02-10T16:24:44.774Z,975.72
2019-02-10T16:25:41.774Z,975.75
2019-02-10T16:26:38.800Z,975.77
2019-02-10T16:27:35.834Z,975.79
2019-02-10T16:28:32.856Z,975.80
2019-02-10T16:29:29.885Z,975.88
2019-02-10T16:30:27.914Z,975.89
2019-02-10T16:31:23.937Z,975.96
2019-02-10T16:32:20.964Z,976.01
2019-02-10T16:33:18.031Z,976.00
2019-02-10T16:34:15.062Z,976.04
2019-02-10T16:35:12.052Z,976.07
2019-02-10T16:36:09.075Z,976.13
2019-02-10T16:37:06.102Z,976.19
2019-02-10T16:38:03.127Z,976.28
2019-02-10T16:39:00.158Z,976.31
2019-02-10T16:39:57.181Z,976.25
2019-02-10T16:40:54.208Z,976.34
2019-02-10T16:41:51.244Z,976.33
2019-02-10T16:42:48.260Z,976.25
2019-02-10T16:43:45.294Z,976.20
2019-02-10T16:44:42.316Z,976.22
2019-02-10T16:45:39.343Z,976.25
2019-02-10T16:46:36.378Z,976.20
2019-02-10T16:47:33.418Z,976.15
2019-02-10T16:48:30.425Z,976.15
2019-02-10T16:49:27.459Z,976.27
2019-02-10T16:50:24.587Z,976.18
2019-02-10T16:51:21.514Z,976.19
2019-02-10T16:52:18.534Z,976.19
2019-02-10T16:53:15.560Z,976.16
2019-02-10T16:54:12.623Z,976.25
2019-02-10T16:55:09.618Z,976.24
2019-02-10T16:56:06.641Z,976.20
2019-02-10T16:57:03.692Z,976.20
2019-02-10T16:58:00.783Z,976.23
2019-02-10T16:58:57.728Z,976.20
2019-02-10T16:59:54.753Z,976.21
2019-02-10T17:00:51.817Z,976.22
2019-02-10T17:01:48.832Z,976.29
2019-02-10T17:02:45.827Z,976.29
2019-02-10T17:03:42.865Z,976.26
2019-02-10T17:04:39.890Z,976.26
2019-02-10T17:05:36.917Z,976.33
2019-02-10T17:06:33.949Z,976.30
2019-02-10T17:07:30.976Z,976.33
2019-02-10T17:08:27.993Z,976.35
2019-02-10T17:09:25.025Z,976.42
2019-02-10T17:10:22.054Z,976.40
2019-02-10T17:11:19.076Z,976.42
2019-02-10T17:12:16.102Z,976.39
2019-02-10T17:13:13.128Z,976.37
2019-02-10T17:14:10.175Z,976.42
2019-02-10T17:15:07.183Z,976.44
2019-02-10T17:16:05.396Z,976.47
2019-02-10T17:17:02.241Z,976.31
2019-02-10T17:17:58.263Z,976.36
2019-02-10T17:18:40.243Z,944.39
2019-02-10T17:19:05.196Z,944.28
2019-02-10T17:20:02.156Z,976.37
2019-02-10T17:20:59.121Z,976.38
2019-02-10T17:21:56.012Z,976.39
2019-02-10T17:22:52.929Z,976.48
2019-02-10T17:23:49.852Z,976.58
2019-02-10T17:24:46.755Z,976.53
2019-02-10T17:25:42.761Z,976.56
2019-02-10T17:26:39.678Z,976.50
2019-02-10T17:27:36.621Z,976.51
2019-02-10T17:28:33.518Z,976.56
2019-02-10T17:29:30.418Z,976.69
2019-02-10T17:30:28.195Z,976.68
2019-02-10T17:31:24.200Z,976.63
2019-02-10T17:32:21.127Z,976.60
2019-02-10T17:33:18.908Z,976.69
2019-02-10T17:34:14.966Z,976.62
2019-02-10T17:35:11.830Z,976.69
2019-02-10T17:36:08.768Z,976.61
2019-02-10T17:37:05.716Z,976.64
2019-02-10T17:38:02.616Z,976.76
2019-02-10T17:39:00.313Z,976.74
2019-02-10T17:39:57.233Z,976.81
2019-02-10T17:40:53.216Z,976.87
2019-02-10T17:41:50.200Z,976.94
2019-02-10T17:42:47.068Z,976.91
2019-02-10T17:43:43.901Z,976.95
2019-02-10T17:44:41.698Z,976.97
2019-02-10T17:45:37.716Z,976.99
2019-02-10T17:46:35.491Z,976.98
2019-02-10T17:47:32.422Z,977.02
2019-02-10T17:48:28.438Z,976.97
2019-02-10T17:49:26.166Z,976.98
2019-02-10T17:50:22.191Z,976.98
2019-02-10T17:51:19.091Z,976.99
2019-02-10T17:52:16.877Z,977.03
2019-02-10T17:53:13.750Z,977.05
2019-02-10T17:54:10.639Z,977.12
2019-02-10T17:55:08.538Z,977.06
2019-02-10T17:56:03.533Z,977.09
2019-02-10T17:57:00.443Z,977.06
2019-02-10T17:57:57.353Z,977.17
2019-02-10T17:58:54.263Z,977.21
2019-02-10T17:59:51.990Z,977.10
2019-02-10T18:00:48.878Z,977.20
2019-02-10T18:01:44.893Z,977.10
2019-02-10T18:02:42.678Z,977.19
2019-02-10T18:03:38.742Z,977.24
2019-02-10T18:04:37.729Z,977.24
2019-02-10T18:05:33.353Z,977.40
2019-02-10T18:06:29.370Z,977.32
2019-02-10T18:07:26.377Z,977.36
2019-02-10T18:08:24.036Z,977.52
2019-02-10T18:09:20.932Z,977.47
2019-02-10T18:10:17.841Z,977.66
2019-02-10T18:11:14.713Z,977.61
2019-02-10T18:12:11.608Z,977.68
2019-02-10T18:13:08.520Z,977.74
2019-02-10T18:14:05.403Z,977.74
2019-02-10T18:15:02.290Z,977.63
2019-02-10T18:15:59.182Z,977.68
2019-02-10T18:16:56.082Z,977.79
2019-02-10T18:17:52.101Z,977.81
2019-02-10T18:18:49.871Z,977.89
2019-02-10T18:19:46.940Z,977.95
2019-02-10T18:20:43.654Z,977.90
2019-02-10T18:21:40.548Z,977.86
2019-02-10T18:22:37.432Z,977.92
2019-02-10T18:23:34.330Z,978.06
2019-02-10T18:24:31.228Z,978.02
2019-02-10T18:25:28.110Z,978.02
2019-02-10T18:26:25.004Z,977.99
2019-02-10T18:27:21.913Z,978.00
2019-02-10T18:28:18.797Z,978.11
2019-02-10T18:29:14.871Z,978.11
2019-02-10T18:30:12.595Z,978.03
2019-02-10T18:31:09.476Z,978.10
2019-02-10T18:32:06.361Z,978.12
2019-02-10T18:33:03.258Z,978.07
2019-02-10T18:34:00.161Z,978.11
2019-02-10T18:34:57.057Z,978.09
2019-02-10T18:35:53.990Z,978.13
2019-02-10T18:36:50.857Z,978.10
2019-02-10T18:37:47.722Z,978.12
2019-02-10T18:38:44.622Z,978.09
2019-02-10T18:39:41.526Z,978.13
2019-02-10T18:40:38.409Z,978.05
2019-02-10T18:41:39.340Z,978.17
2019-02-10T18:42:32.189Z,978.14
2019-02-10T18:43:29.093Z,978.23
2019-02-10T18:44:25.971Z,978.19
2019-02-10T18:45:22.861Z,978.19
2019-02-10T18:46:19.761Z,978.25
2019-02-10T18:47:16.653Z,978.17
2019-02-10T18:48:13.683Z,978.34
2019-02-10T18:49:10.446Z,978.36
2019-02-10T18:50:07.344Z,978.34
2019-02-10T18:51:04.241Z,978.31
2019-02-10T18:52:01.118Z,978.49
2019-02-10T18:52:58.016Z,978.49
2019-02-10T18:53:54.910Z,978.43
2019-02-10T18:54:52.501Z,978.37
2019-02-10T18:55:48.695Z,978.47
2019-02-10T18:56:45.586Z,978.43
2019-02-10T18:57:42.490Z,978.36
2019-02-10T18:58:39.381Z,978.53
2019-02-10T18:59:37.263Z,978.49
2019-02-10T19:00:33.147Z,978.48
2019-02-10T19:01:30.062Z,978.41
2019-02-10T19:02:26.949Z,978.43
2019-02-10T19:03:23.833Z,978.36
2019-02-10T19:04:20.730Z,978.45
2019-02-10T19:05:17.618Z,978.55
2019-02-10T19:06:14.511Z,978.54
2019-02-10T19:07:11.408Z,978.58
2019-02-10T19:08:08.290Z,978.50
2019-02-10T19:09:05.190Z,978.64
2019-02-10T19:10:02.123Z,978.57
2019-02-10T19:10:58.987Z,978.65
2019-02-10T19:11:55.878Z,978.64
2019-02-10T19:12:52.767Z,978.67
2019-02-10T19:13:49.661Z,978.73
2019-02-10T19:14:46.557Z,978.63
2019-02-10T19:15:43.450Z,978.63
2019-02-10T19:16:40.351Z,978.55
2019-02-10T19:17:37.249Z,978.74
2019-02-10T19:18:35.148Z,978.76
2019-02-10T19:19:31.040Z,978.77
2019-02-10T19:20:27.932Z,978.71
2019-02-10T19:21:24.831Z,978.73
2019-02-10T19:22:21.729Z,978.74
2019-02-10T19:23:18.617Z,978.76
2019-02-10T19:24:15.521Z,978.74
2019-02-10T19:25:12.439Z,978.71
2019-02-10T19:26:09.300Z,978.69
2019-02-10T19:27:06.185Z,978.64
2019-02-10T19:28:03.092Z,978.69
2019-02-10T19:29:00.030Z,978.71
2019-02-10T19:29:56.874Z,978.71
2019-02-10T19:30:53.773Z,978.61
2019-02-10T19:31:50.694Z,978.75
2019-02-10T19:32:47.575Z,978.86
2019-02-10T19:33:44.471Z,978.76
2019-02-10T19:34:41.359Z,978.83
2019-02-10T19:35:38.250Z,978.77
2019-02-10T19:36:35.136Z,978.81
2019-02-10T19:37:32.061Z,978.76
2019-02-10T19:38:28.928Z,978.80
2019-02-10T19:39:25.850Z,978.81
2019-02-10T19:40:22.714Z,978.88
2019-02-10T19:41:19.631Z,978.85
2019-02-10T19:42:16.505Z,978.86
2019-02-10T19:43:13.434Z,978.89
2019-02-10T19:44:10.330Z,978.94
2019-02-10T19:45:07.202Z,978.95
2019-02-10T19:46:04.103Z,978.97
2019-02-10T19:47:00.983Z,979.03
2019-02-10T19:47:57.885Z,979.00
2019-02-10T19:48:54.774Z,979.05
2019-02-10T19:49:52.679Z,978.95
2019-02-10T19:50:48.555Z,979.00
2019-02-10T19:51:45.459Z,979.03
2019-02-10T19:52:42.364Z,979.06
2019-02-10T19:53:39.817Z,979.05
2019-02-10T19:54:36.179Z,979.07
2019-02-10T19:55:33.132Z,979.01
2019-02-10T19:56:29.960Z,979.08
2019-02-10T19:57:27.234Z,979.13
2019-02-10T19:58:23.779Z,979.11
2019-02-10T19:59:21.645Z,979.08
2019-02-10T20:00:17.586Z,979.11
2019-02-10T20:01:14.850Z,979.13
2019-02-10T20:02:11.378Z,979.11
2019-02-10T20:03:08.240Z,979.12
2019-02-10T20:04:05.125Z,979.16
2019-02-10T20:05:02.034Z,979.28
2019-02-10T20:05:58.922Z,979.29
2019-02-10T20:06:55.824Z,979.19
2019-02-10T20:07:53.716Z,979.31
2019-02-10T20:08:49.609Z,979.29
2019-02-10T20:09:46.513Z,979.22
2019-02-10T20:10:43.414Z,979.25
2019-02-10T20:11:40.306Z,979.26
2019-02-10T20:12:37.280Z,979.30
2019-02-10T20:13:34.096Z,979.34
2019-02-10T20:14:31.012Z,979.21
2019-02-10T20:15:27.898Z,979.32
2019-02-10T20:16:24.802Z,979.36
2019-02-10T20:17:21.684Z,979.34
2019-02-10T20:18:18.584Z,979.36
2019-02-10T20:19:15.506Z,979.34
2019-02-10T20:20:12.380Z,979.27
2019-02-10T20:21:09.284Z,979.40
2019-02-10T20:22:06.169Z,979.42
2019-02-10T20:23:03.070Z,979.43
2019-02-10T20:23:59.975Z,979.38
2019-02-10T20:24:56.874Z,979.37
2019-02-10T20:25:54.773Z,979.37
2019-02-10T20:26:50.658Z,979.38
2019-02-10T20:27:47.574Z,979.39
2019-02-10T20:28:44.461Z,979.35
2019-02-10T20:29:41.345Z,979.39
2019-02-10T20:30:38.246Z,979.28
2019-02-10T20:31:35.152Z,979.27
2019-02-10T20:32:32.026Z,979.30
2019-02-10T20:33:28.932Z,979.38
2019-02-10T20:34:25.828Z,979.40
2019-02-10T20:35:22.721Z,979.41
2019-02-10T20:36:20.639Z,979.45
2019-02-10T20:37:16.506Z,979.54
2019-02-10T20:38:13.405Z,979.54
2019-02-10T20:39:10.298Z,979.54
2019-02-10T20:40:07.220Z,979.63
2019-02-10T20:41:04.105Z,979.54
2019-02-10T20:42:00.995Z,979.65
2019-02-10T20:42:57.894Z,979.69
2019-02-10T20:43:54.794Z,979.69
2019-02-10T20:44:51.689Z,979.77
2019-02-10T20:45:48.641Z,979.78
2019-02-10T20:46:45.503Z,979.90
2019-02-10T20:47:42.385Z,979.92
2019-02-10T20:48:39.294Z,979.97
2019-02-10T20:49:36.199Z,979.97
2019-02-10T20:50:33.116Z,980.02
2019-02-10T20:51:29.995Z,979.98
2019-02-10T20:52:26.908Z,980.03
2019-02-10T20:53:23.788Z,980.10
2019-02-10T20:54:20.680Z,980.07
2019-02-10T20:55:17.587Z,980.08
2019-02-10T20:56:14.471Z,980.07
2019-02-10T20:57:11.382Z,980.03
2019-02-10T20:58:08.254Z,980.02
2019-02-10T20:59:06.180Z,980.05
2019-02-10T21:00:02.051Z,980.16
2019-02-10T21:00:58.941Z,980.08
2019-02-10T21:01:55.848Z,980.11
2019-02-10T21:02:52.731Z,980.10
2019-02-10T21:03:49.622Z,980.12
2019-02-10T21:04:46.522Z,980.05
2019-02-10T21:05:43.421Z,980.13
2019-02-10T21:06:40.321Z,980.06
2019-02-10T21:07:37.215Z,980.18
2019-02-10T21:08:35.101Z,980.25
2019-02-10T21:09:31.000Z,980.32
2019-02-10T21:10:27.928Z,980.20
2019-02-10T21:11:25.809Z,980.27
2019-02-10T21:12:21.692Z,980.27
2019-02-10T21:13:18.590Z,980.20
2019-02-10T21:14:15.512Z,980.26
2019-02-10T21:15:12.378Z,980.30
2019-02-10T21:16:09.285Z,980.24
2019-02-10T21:17:06.189Z,980.30
2019-02-10T21:18:03.074Z,980.35
2019-02-10T21:19:00.974Z,980.45
2019-02-10T21:19:56.870Z,980.38
2019-02-10T21:20:53.788Z,980.43
2019-02-10T21:21:50.659Z,980.45
2019-02-10T21:22:47.598Z,980.46
2019-02-10T21:23:44.462Z,980.46
2019-02-10T21:24:41.358Z,980.47
2019-02-10T21:25:38.266Z,980.49
2019-02-10T21:26:35.157Z,980.50
2019-02-10T21:27:32.038Z,980.56
2019-02-10T21:28:28.935Z,980.55
2019-02-10T21:29:25.840Z,980.53
2019-02-10T21:30:22.720Z,980.55
2019-02-10T21:31:20.622Z,980.52
2019-02-10T21:32:16.512Z,980.47
2019-02-10T21:33:13.410Z,980.62
2019-02-10T21:34:10.312Z,980.67
2019-02-10T21:35:07.214Z,980.67
2019-02-10T21:36:04.109Z,980.72
2019-02-10T21:37:01.007Z,980.83
2019-02-10T21:37:57.896Z,980.83
2019-02-10T21:38:54.787Z,980.79
2019-02-10T21:39:51.683Z,980.86
2019-02-10T21:40:48.585Z,980.84
2019-02-10T21:41:45.491Z,980.84
2019-02-10T21:42:42.389Z,980.82
2019-02-10T21:43:39.574Z,980.86
2019-02-10T21:44:36.178Z,980.98
2019-02-10T21:45:33.070Z,980.80
2019-02-10T21:46:29.973Z,980.98
2019-02-10T21:47:26.860Z,981.08
2019-02-10T21:48:23.759Z,981.01
2019-02-10T21:49:20.661Z,981.00
2019-02-10T21:50:17.551Z,981.05
2019-02-10T21:51:14.452Z,981.03
2019-02-10T21:52:11.355Z,981.02
2019-02-10T21:53:07.390Z,981.00
2019-02-10T21:54:04.357Z,981.05
2019-02-10T21:55:01.235Z,981.16
2019-02-10T21:55:58.045Z,981.02
2019-02-10T21:56:55.018Z,981.08
2019-02-10T21:57:51.882Z,981.11
2019-02-10T21:58:48.832Z,981.09
2019-02-10T21:59:45.651Z,981.11
2019-02-10T22:00:42.597Z,981.16
2019-02-10T22:01:39.476Z,981.22
2019-02-10T22:02:36.460Z,981.23
2019-02-10T22:03:34.163Z,981.17
2019-02-10T22:04:30.153Z,981.31
2019-02-10T22:05:27.056Z,981.31
2019-02-10T22:06:24.006Z,981.27
2019-02-10T22:07:20.850Z,981.36
2019-02-10T22:08:17.750Z,981.33
2019-02-10T22:09:14.654Z,981.35
2019-02-10T22:10:11.547Z,981.31
2019-02-10T22:11:08.472Z,981.44
2019-02-10T22:12:05.333Z,981.42
2019-02-10T22:13:02.234Z,981.40
2019-02-10T22:13:59.119Z,981.45
2019-02-10T22:14:56.015Z,981.50
2019-02-10T22:15:52.910Z,981.56
2019-02-10T22:16:49.847Z,981.53
2019-02-10T22:17:46.775Z,981.62
2019-02-10T22:18:43.606Z,981.58
2019-02-10T22:19:40.506Z,981.66
2019-02-10T22:20:37.424Z,981.67
2019-02-10T22:21:34.305Z,981.73
2019-02-10T22:22:31.201Z,981.83
2019-02-10T22:23:28.142Z,981.75
2019-02-10T22:24:25.065Z,981.82
2019-02-10T22:25:21.910Z,981.91
2019-02-10T22:26:18.810Z,981.69
2019-02-10T22:27:15.721Z,981.87
2019-02-10T22:28:12.613Z,981.91
2019-02-10T22:29:09.495Z,981.93
2019-02-10T22:30:06.390Z,981.96
2019-02-10T22:31:03.467Z,981.90
2019-02-10T22:32:00.231Z,981.96
2019-02-10T22:32:57.132Z,982.03
2019-02-10T22:33:54.020Z,981.89
2019-02-10T22:34:50.925Z,982.03
2019-02-10T22:35:47.850Z,981.96
2019-02-10T22:36:44.705Z,981.93
2019-02-10T22:37:42.608Z,981.94
2019-02-10T22:38:38.524Z,982.04
2019-02-10T22:39:35.396Z,982.02
2019-02-10T22:40:32.294Z,982.07
2019-02-10T22:41:29.195Z,982.14
2019-02-10T22:42:26.093Z,982.10
2019-02-10T22:43:22.993Z,982.14
2019-02-10T22:44:19.920Z,982.24
2019-02-10T22:45:16.800Z,982.24
2019-02-10T22:46:13.715Z,982.23
2019-02-10T22:47:10.610Z,982.31
2019-02-10T22:48:08.479Z,982.33
2019-02-10T22:49:04.436Z,982.25
2019-02-10T22:50:01.301Z,982.35
2019-02-10T22:50:58.181Z,982.37
2019-02-10T22:51:55.061Z,982.48
2019-02-10T22:52:51.976Z,982.52
2019-02-10T22:53:48.914Z,982.58
2019-02-10T22:54:45.739Z,982.49
2019-02-10T22:55:42.783Z,982.59
2019-02-10T22:56:39.574Z,982.56
2019-02-10T22:57:36.437Z,982.65
2019-02-10T22:58:34.223Z,982.55
2019-02-10T22:59:31.110Z,982.66
2019-02-10T23:00:27.149Z,982.64
2019-02-10T23:01:24.062Z,982.76
2019-02-10T23:02:20.910Z,982.73
2019-02-10T23:03:17.882Z,982.74
2019-02-10T23:04:14.777Z,982.68
2019-02-10T23:05:11.608Z,982.71
2019-02-10T23:06:08.466Z,982.86
2019-02-10T23:07:05.376Z,982.83
2019-02-10T23:08:02.266Z,982.73
2019-02-10T23:08:59.221Z,982.73
2019-02-10T23:09:56.047Z,982.80
2019-02-10T23:10:53.047Z,982.91
2019-02-10T23:11:49.843Z,982.77
2019-02-10T23:12:53.635Z,982.87
2019-02-10T23:13:43.630Z,982.90
2019-02-10T23:14:41.528Z,982.91
2019-02-10T23:15:37.500Z,982.87
2019-02-10T23:16:34.375Z,982.98
2019-02-10T23:17:31.312Z,982.94
2019-02-10T23:18:28.277Z,982.93
2019-02-10T23:19:25.011Z,983.00
2019-02-10T23:20:21.954Z,982.99
2019-02-10T23:21:18.825Z,983.01
2019-02-10T23:22:15.740Z,983.03
2019-02-10T23:23:12.653Z,983.07
2019-02-10T23:24:09.500Z,983.07
2019-02-10T23:25:06.383Z,983.09
2019-02-10T23:26:03.339Z,983.15
2019-02-10T23:27:00.189Z,983.11
2019-02-10T23:27:57.095Z,983.15
2019-02-10T23:28:53.964Z,983.14
2019-02-10T23:29:50.879Z,983.19
2019-02-10T23:30:48.646Z,983.12
2019-02-10T23:31:44.652Z,983.14
2019-02-10T23:32:41.560Z,983.26
2019-02-10T23:33:38.506Z,983.24
2019-02-10T23:34:35.366Z,983.24
2019-02-10T23:35:32.258Z,983.20
2019-02-10T23:36:29.142Z,983.27
2019-02-10T23:37:26.071Z,983.35
2019-02-10T23:38:22.937Z,983.18
2019-02-10T23:39:19.863Z,983.30
2019-02-10T23:40:16.778Z,983.44
2019-02-10T23:41:13.626Z,983.36
2019-02-10T23:42:10.524Z,983.46
2019-02-10T23:43:07.423Z,983.56
2019-02-10T23:44:04.351Z,983.47
2019-02-10T23:45:01.222Z,983.49
2019-02-10T23:45:59.155Z,983.52
2019-02-10T23:46:55.014Z,983.55
2019-02-10T23:47:51.929Z,983.60
2019-02-10T23:48:48.869Z,983.75
2019-02-10T23:49:45.771Z,983.65
2019-02-10T23:50:42.648Z,983.71
2019-02-10T23:51:39.531Z,983.64
2019-02-10T23:52:36.406Z,983.67
2019-02-10T23:53:33.320Z,983.71
2019-02-10T23:54:30.241Z,983.68
2019-02-10T23:55:27.118Z,983.75
2019-02-10T23:56:24.008Z,983.76
2019-02-10T23:57:20.943Z,983.78
2019-02-10T23:58:17.808Z,983.88
2019-02-10T23:59:14.720Z,983.84
